PDT,Max TemperatureF,Mean TemperatureF,Min TemperatureF,Max Dew PointF,MeanDew PointF,Min DewpointF,Max Humidity, Mean Humidity, Min Humidity, Max Sea Level PressureIn, Mean Sea Level PressureIn, Min Sea Level PressureIn, Max VisibilityMiles, Mean VisibilityMiles, Min VisibilityMiles, Max Wind SpeedMPH, Mean Wind SpeedMPH, Max Gust SpeedMPH,PrecipitationIn, CloudCover, Events, WindDirDegrees
2013-9-1,78,66,53,47,42,35,56,43,29,30.13,30.00,29.94,10,9,4,15,2,22,0.00,4,,212
2013-9-2,77,68,58,51,47,43,64,49,33,30.17,30.00,29.91,10,6,2,21,3,29,T,3,Rain,205
2013-9-3,78,65,52,47,45,42,71,50,29,30.16,30.00,29.96,10,8,5,18,3,32,0.00,2,,207
2013-9-4,78,63,48,46,43,41,77,53,28,30.08,30.04,30.00,10,9,6,17,3,28,0.00,2,,195
2013-9-5,75,61,46,42,39,33,71,47,23,30.03,29.99,29.96,10,9,6,29,6,37,0.00,0,,199
2013-9-6,81,64,47,40,36,32,65,42,19,30.18,30.02,29.95,10,9,4,17,3,25,0.00,1,,214
2013-9-7,81,61,40,44,35,28,79,48,16,30.08,30.03,29.99,10,8,5,17,3,28,0.00,0,,198
2013-9-8,82,60,38,38,32,28,70,43,15,30.08,30.01,29.96,10,9,6,15,2,20,0.00,0,,54
2013-9-9,82,61,40,38,33,28,70,43,15,30.06,29.97,29.90,10,10,10,13,2,20,0.00,0,,341
2013-9-10,81,60,39,37,31,19,64,38,11,30.00,29.95,29.89,10,10,10,12,2,22,0.00,0,,180
2013-9-11,81,62,43,41,36,30,70,44,17,30.08,30.03,29.99,10,10,10,14,2,21,0.00,1,,180
2013-9-12,79,61,43,54,43,34,89,56,23,30.23,30.05,29.95,10,8,0,18,3,25,0.32,4,Fog-Rain,39
2013-9-13,77,61,45,54,47,41,92,60,28,30.19,30.08,29.92,10,7,0,9,3,30,T,4,Fog-Thunderstorm,176
2013-9-14,79,62,44,48,44,39,83,55,26,29.96,29.90,29.86,10,10,10,6,1,10,T,1,,40
2013-9-15,78,61,44,43,36,29,76,47,18,29.92,29.88,29.86,10,10,10,24,5,35,0.00,1,,205
2013-9-16,79,67,55,41,34,31,49,34,19,29.90,29.86,29.81,10,10,10,22,7,32,0.00,0,,205
2013-9-17,67,52,36,39,31,21,62,41,19,29.94,29.79,29.72,10,10,10,26,8,40,0.00,0,,194
2013-9-18,68,49,29,35,27,21,69,46,23,30.10,30.00,29.94,10,10,10,10,2,15,0.00,0,,143
2013-9-19,76,53,30,30,26,19,78,46,13,30.07,29.99,29.93,10,10,10,13,2,17,0.00,0,,138
2013-9-20,73,54,34,35,27,21,64,39,14,29.94,29.85,29.78,10,10,10,26,6,40,0.00,0,,190
2013-9-21,59,48,36,42,35,27,85,60,35,29.90,29.81,29.71,10,7,2,32,13,44,0.39,6,Rain-Snow,190
2013-9-22,61,47,33,38,33,29,89,61,33,30.05,29.95,29.84,10,10,10,17,3,22,0.00,2,,187
2013-9-23,73,53,32,40,32,13,89,50,10,30.12,30.05,30.00,10,10,10,16,3,23,0.00,0,,195
2013-9-24,65,55,45,36,26,14,54,36,17,30.00,29.88,29.77,10,10,10,30,10,46,T,1,Rain,203
2013-9-25,52,43,33,31,25,18,69,48,27,29.87,29.78,29.75,10,10,9,20,8,25,T,2,,187
2013-9-26,51,40,29,25,22,20,78,56,34,30.06,29.91,29.80,10,10,10,14,2,28,0.00,1,,30
2013-9-27,60,42,24,26,21,11,81,48,14,30.18,30.12,30.06,10,10,10,12,2,15,0.00,0,,196
2013-9-28,68,50,31,28,25,19,72,48,24,30.19,30.13,30.06,10,10,10,20,5,25,0.00,0,,192
2013-9-29,63,58,52,30,26,19,38,31,23,30.06,30.04,30.01,10,10,10,31,14,46,0.00,1,,193
2013-9-30,63,57,51,36,30,23,50,39,27,30.04,30.00,29.95,10,10,10,23,12,30,0.00,1,,194